Time;durP1;ratioP1;P1;durP2;ratioP2;P2;SDS_P1;SDS_P2;PMS_P1;PMS_P2;Temp;Humidity;BMP_temperature;BMP_pressure;BME280_temperature;BME280_humidity;BME280_pressure;Samples;Min_cycle;Max_cycle;Signal;HPM_P1;HPM_P2
2022/01/30 00:02:04;;;;;;;5.80;2.03;;;8.70;1.00;;;;;;5066566;28;20405;-76
2022/01/30 00:04:40;;;;;;;6.63;2.10;;;8.80;1.00;;;;;;5034037;28;20157;-74
2022/01/30 00:07:06;;;;;;;9.47;2.33;;;8.80;1.00;;;;;;5065079;28;20964;-74
2022/01/30 00:09:32;;;;;;;5.30;2.27;;;8.80;1.00;;;;;;5053430;28;20772;-74
2022/01/30 00:12:01;;;;;;;8.80;2.33;;;8.80;1.00;;;;;;5053483;28;20416;-74
2022/01/30 00:14:31;;;;;;;8.67;2.90;;;8.80;1.00;;;;;;5065757;28;20417;-74
2022/01/30 00:17:14;;;;;;;4.00;1.93;;;8.90;1.00;;;;;;5060137;28;20786;-74
2022/01/30 00:19:47;;;;;;;8.93;2.80;;;8.90;1.00;;;;;;5065953;28;20801;-74
2022/01/30 00:22:34;;;;;;;8.83;2.80;;;8.90;1.00;;;;;;5063832;28;20502;-74
2022/01/30 00:25:16;;;;;;;5.60;2.60;;;11.40;1.00;;;;;;5053427;28;20496;-74
2022/01/30 00:27:55;;;;;;;7.87;2.57;;;9.10;1.00;;;;;;5068233;28;20481;-74
2022/01/30 00:30:22;;;;;;;8.37;2.50;;;9.10;1.00;;;;;;5069454;28;20435;-73
2022/01/30 00:32:58;;;;;;;8.30;2.60;;;9.10;1.00;;;;;;5056189;28;20432;-76
2022/01/30 00:35:29;;;;;;;5.73;2.17;;;9.10;1.00;;;;;;5053419;28;20401;-76
2022/01/30 00:38:18;;;;;;;5.80;2.30;;;9.10;1.00;;;;;;5058499;28;20455;-77
2022/01/30 00:40:45;;;;;;;8.77;2.03;;;9.10;1.00;;;;;;5058343;28;20399;-76
2022/01/30 00:43:17;;;;;;;7.70;1.83;;;9.10;1.00;;;;;;5053491;28;20401;-76
2022/01/30 00:45:43;;;;;;;11.83;1.73;;;9.20;1.00;;;;;;5056354;28;20413;-76
2022/01/30 00:48:10;;;;;;;6.43;2.47;;;9.10;1.00;;;;;;5064270;28;20888;-76
2022/01/30 00:51:03;;;;;;;3.43;1.67;;;9.20;1.00;;;;;;5053490;28;20597;-76
2022/01/30 00:53:46;;;;;;;4.63;1.97;;;9.20;1.00;;;;;;5053209;28;20406;-76
2022/01/30 00:56:40;;;;;;;3.60;1.30;;;9.20;1.00;;;;;;5037552;28;20727;-76
2022/01/30 00:59:22;;;;;;;6.73;2.17;;;9.20;1.00;;;;;;5053429;28;20497;-76
2022/01/30 01:01:58;;;;;;;6.40;2.07;;;9.30;1.00;;;;;;5053154;28;20405;-76
2022/01/30 01:04:24;;;;;;;3.70;1.70;;;9.30;1.00;;;;;;5063610;28;20409;-76
2022/01/30 01:07:06;;;;;;;8.50;1.93;;;9.30;1.00;;;;;;5056574;28;20405;-76
2022/01/30 01:09:37;;;;;;;2.23;1.47;;;9.40;1.00;;;;;;5053043;28;20254;-76
2022/01/30 01:25:22;;;;;;;6.10;1.67;;;9.40;1.00;;;;;;5044457;28;20389;-73
2022/01/30 01:27:48;;;;;;;10.47;2.37;;;9.40;1.00;;;;;;5071446;28;20413;-73
2022/01/30 01:30:13;;;;;;;4.77;1.60;;;9.40;1.00;;;;;;5058142;28;20418;-73
2022/01/30 01:32:39;;;;;;;6.40;1.90;;;9.40;1.00;;;;;;5071529;28;20175;-73
2022/01/30 01:35:06;;;;;;;5.63;2.03;;;9.30;1.00;;;;;;5076597;28;20390;-73
2022/01/30 01:37:34;;;;;;;8.70;1.90;;;9.30;1.00;;;;;;5076041;28;20269;-73
2022/01/30 01:39:59;;;;;;;5.20;2.60;;;9.30;1.00;;;;;;5067463;28;20432;-74
2022/01/30 01:42:29;;;;;;;3.80;2.10;;;9.20;1.00;;;;;;5068954;28;20911;-73
2022/01/30 01:44:57;;;;;;;4.60;1.73;;;9.20;1.00;;;;;;5055881;28;20645;-73
2022/01/30 01:47:28;;;;;;;9.00;2.10;;;9.20;1.00;;;;;;5071794;28;20432;-74
2022/01/30 01:49:58;;;;;;;6.27;1.90;;;9.20;1.00;;;;;;5066650;28;20406;-75
2022/01/30 01:52:57;;;;;;;5.07;1.80;;;9.20;1.00;;;;;;5055777;28;20402;-75
2022/01/30 01:55:23;;;;;;;6.43;1.70;;;9.10;1.00;;;;;;5066584;28;20422;-76
2022/01/30 01:58:27;;;;;;;6.90;2.53;;;9.10;1.00;;;;;;5058000;28;20445;-75
2022/01/30 02:01:16;;;;;;;5.87;1.83;;;9.00;1.00;;;;;;5036245;28;20156;-75
2022/01/30 02:04:04;;;;;;;15.80;2.20;;;9.00;1.00;;;;;;5067428;28;20490;-75
2022/01/30 02:06:40;;;;;;;2.60;1.53;;;9.00;1.00;;;;;;5070130;28;20424;-76
2022/01/30 02:09:16;;;;;;;4.93;2.00;;;9.00;1.00;;;;;;5064580;28;20857;-76
2022/01/30 02:11:54;;;;;;;7.80;1.63;;;9.00;1.00;;;;;;5062261;28;20405;-76
2022/01/30 02:14:36;;;;;;;5.30;1.83;;;9.00;1.00;;;;;;5063778;28;20455;-76
2022/01/30 02:27:47;;;;;;;5.60;2.40;;;8.90;1.00;;;;;;5059456;28;20421;-73
2022/01/30 02:30:18;;;;;;;6.93;1.93;;;8.90;1.00;;;;;;5055206;28;20160;-73
2022/01/30 02:32:48;;;;;;;6.30;1.50;;;8.90;1.00;;;;;;5058886;28;20436;-73
2022/01/30 02:35:14;;;;;;;7.90;1.77;;;8.90;1.00;;;;;;5064806;28;20410;-76
2022/01/30 02:37:47;;;;;;;4.20;1.10;;;9.00;1.00;;;;;;5059401;28;20449;-75
2022/01/30 02:40:22;;;;;;;4.47;1.47;;;8.90;1.00;;;;;;5067490;28;20754;-75
2022/01/30 02:43:20;;;;;;;6.10;1.40;;;8.90;1.00;;;;;;5048146;28;20877;-76
2022/01/30 02:45:59;;;;;;;3.10;1.33;;;8.90;1.00;;;;;;5057401;28;20779;-76
2022/01/30 02:48:46;;;;;;;5.37;1.80;;;8.90;1.00;;;;;;5061092;28;20429;-76
2022/01/30 02:51:23;;;;;;;13.13;1.37;;;8.80;1.00;;;;;;5051990;28;20753;-76
2022/01/30 02:54:03;;;;;;;9.93;1.87;;;8.80;1.00;;;;;;5065793;28;20409;-76
2022/01/30 02:56:35;;;;;;;11.80;1.67;;;8.60;1.00;;;;;;5048313;28;20410;-76
2022/01/30 02:59:04;;;;;;;7.10;2.07;;;8.70;1.00;;;;;;5073715;28;20424;-75
2022/01/30 03:01:46;;;;;;;4.97;1.20;;;8.70;1.00;;;;;;5074700;28;20853;-76
2022/01/30 03:04:12;;;;;;;5.10;2.10;;;8.60;1.00;;;;;;5051982;28;20745;-73
2022/01/30 03:06:38;;;;;;;6.53;1.80;;;8.60;1.00;;;;;;5061071;28;20413;-73
2022/01/30 03:09:06;;;;;;;15.13;2.53;;;8.50;1.00;;;;;;5063511;28;20194;-73
2022/01/30 03:11:32;;;;;;;13.23;1.87;;;8.60;1.00;;;;;;5074212;28;20901;-73
2022/01/30 03:13:58;;;;;;;3.47;1.33;;;8.50;1.00;;;;;;5068947;28;20410;-73
2022/01/30 03:16:24;;;;;;;11.63;1.97;;;8.50;1.00;;;;;;5060729;28;20168;-73
2022/01/30 03:18:50;;;;;;;9.67;1.87;;;8.40;1.00;;;;;;5064955;28;20508;-73
2022/01/30 03:21:34;;;;;;;6.93;1.43;;;8.40;1.00;;;;;;5070762;28;20175;-75
2022/01/30 03:24:04;;;;;;;6.10;2.20;;;8.30;1.00;;;;;;5070963;28;20417;-76
2022/01/30 03:26:38;;;;;;;6.17;1.70;;;8.30;1.00;;;;;;5069154;28;20414;-75
2022/01/30 03:29:41;;;;;;;19.97;2.20;;;8.20;1.00;;;;;;5067225;28;20419;-75
2022/01/30 03:32:16;;;;;;;4.80;1.80;;;8.20;1.00;;;;;;5063163;28;20975;-75
2022/01/30 03:34:46;;;;;;;4.70;1.83;;;8.10;1.00;;;;;;5054655;28;20420;-75
2022/01/30 03:37:22;;;;;;;6.53;1.80;;;8.10;1.00;;;;;;5054178;28;20446;-75
2022/01/30 03:39:48;;;;;;;4.43;2.27;;;7.90;1.00;;;;;;5049592;28;20409;-76
2022/01/30 03:42:40;;;;;;;12.77;1.67;;;7.90;1.00;;;;;;5060845;28;20928;-76
2022/01/30 03:45:06;;;;;;;2.70;1.60;;;7.90;1.00;;;;;;5055988;28;20166;-76
2022/01/30 03:47:32;;;;;;;4.30;1.70;;;7.90;1.00;;;;;;5054145;28;20406;-75
2022/01/30 03:49:58;;;;;;;6.07;1.80;;;7.80;1.00;;;;;;5054128;28;20406;-73
2022/01/30 03:52:23;;;;;;;8.73;1.50;;;7.80;1.00;;;;;;5070968;28;20269;-73
2022/01/30 03:54:49;;;;;;;9.73;2.20;;;7.80;1.00;;;;;;5056324;28;20179;-73
2022/01/30 03:57:15;;;;;;;2.13;1.20;;;7.80;1.00;;;;;;5057721;28;20202;-73
2022/01/30 03:59:41;;;;;;;5.63;1.83;;;7.80;1.00;;;;;;5053525;28;20172;-73
2022/01/30 04:02:08;;;;;;;5.00;1.87;;;7.80;1.00;;;;;;5071500;28;20172;-73
2022/01/30 04:04:34;;;;;;;7.57;1.97;;;;;;;;;;5068228;28;20536;-74
2022/01/30 04:07:00;;;;;;;15.13;1.83;;;7.80;1.00;;;;;;5071221;28;20897;-73
2022/01/30 04:09:28;;;;;;;5.13;1.27;;;7.80;1.00;;;;;;5059410;28;20489;-73
2022/01/30 04:11:58;;;;;;;2.07;1.17;;;7.80;1.00;;;;;;5066673;28;20417;-73
2022/01/30 04:14:24;;;;;;;8.30;2.30;;;7.80;1.00;;;;;;5053798;28;20422;-73
2022/01/30 04:16:50;;;;;;;5.67;1.30;;;7.80;1.00;;;;;;5066895;28;20978;-73
2022/01/30 04:19:16;;;;;;;5.13;1.57;;;7.70;1.00;;;;;;5053386;28;20410;-73
2022/01/30 04:22:04;;;;;;;8.93;2.43;;;7.70;1.00;;;;;;5067433;28;20507;-75
2022/01/30 04:24:40;;;;;;;5.70;1.97;;;7.60;1.00;;;;;;5058305;28;20468;-75
2022/01/30 04:27:06;;;;;;;2.00;1.00;;;7.60;1.00;;;;;;5051676;28;20466;-75
2022/01/30 04:29:33;;;;;;;13.60;2.10;;;7.60;1.00;;;;;;5071505;28;20394;-76
2022/01/30 04:31:59;;;;;;;7.23;2.20;;;7.50;1.00;;;;;;5053544;28;20160;-75
2022/01/30 04:34:27;;;;;;;8.20;2.10;;;7.50;1.00;;;;;;5055829;28;20964;-75
2022/01/30 04:37:04;;;;;;;21.80;1.60;;;7.50;1.00;;;;;;5064277;28;20513;-76
2022/01/30 04:39:52;;;;;;;9.87;2.30;;;7.50;1.00;;;;;;5066860;28;20414;-75
2022/01/30 05:02:06;;;;;;;4.13;1.50;;;7.00;1.00;;;;;;5070451;28;20393;-73
2022/01/30 05:04:43;;;;;;;4.00;1.47;;;;;;;;;;5058998;28;20428;-73
2022/01/30 05:09:35;;;;;;;9.83;0.97;;;7.00;1.00;;;;;;5064189;28;20421;-73
2022/01/30 05:12:01;;;;;;;6.63;1.73;;;7.00;1.00;;;;;;5070493;28;20794;-73
2022/01/30 05:14:33;;;;;;;16.70;2.07;;;7.00;1.00;;;;;;5056753;28;20394;-74
2022/01/30 05:17:00;;;;;;;8.33;2.00;;;7.00;1.00;;;;;;5072190;28;20537;-73
2022/01/30 05:19:34;;;;;;;8.80;1.90;;;7.00;1.00;;;;;;5063295;28;20429;-73
2022/01/30 05:22:00;;;;;;;9.80;1.67;;;7.00;1.00;;;;;;5044577;28;20760;-73
2022/01/30 05:24:26;;;;;;;9.33;1.70;;;7.00;1.00;;;;;;5064400;28;20418;-74
2022/01/30 05:26:52;;;;;;;3.53;1.50;;;7.00;1.00;;;;;;5067259;28;20413;-73
2022/01/30 05:29:18;;;;;;;10.53;1.60;;;7.10;1.00;;;;;;5070851;28;20416;-73
2022/01/30 05:31:44;;;;;;;13.03;2.13;;;7.10;1.00;;;;;;5068651;28;20414;-74
2022/01/30 05:34:16;;;;;;;8.70;1.03;;;7.20;1.00;;;;;;5055480;28;20421;-73
2022/01/30 05:36:47;;;;;;;3.60;1.00;;;7.20;1.00;;;;;;5058163;28;20468;-74
2022/01/30 05:39:13;;;;;;;4.17;2.20;;;7.20;1.00;;;;;;5058498;28;20399;-74
2022/01/30 05:41:39;;;;;;;10.00;2.03;;;7.20;1.00;;;;;;5067300;28;20414;-73
2022/01/30 05:44:14;;;;;;;14.53;1.70;;;7.30;1.00;;;;;;5058504;28;20402;-73
2022/01/30 05:46:50;;;;;;;4.83;1.47;;;7.30;1.00;;;;;;5058585;28;20769;-73
2022/01/30 05:49:16;;;;;;;13.60;1.33;;;7.30;1.00;;;;;;5074513;28;20417;-73
2022/01/30 05:51:42;;;;;;;11.50;1.73;;;7.30;1.00;;;;;;5076069;28;20938;-73
2022/01/30 05:54:10;;;;;;;4.10;1.20;;;7.40;1.00;;;;;;5056966;28;20418;-73
2022/01/30 05:56:37;;;;;;;15.90;2.10;;;7.40;1.00;;;;;;5055233;28;20202;-73
2022/01/30 05:59:03;;;;;;;4.10;1.10;;;7.40;1.00;;;;;;5049717;28;20820;-73
2022/01/30 06:01:29;;;;;;;2.40;1.30;;;7.40;1.00;;;;;;5068484;28;20512;-73
2022/01/30 06:03:55;;;;;;;12.73;1.50;;;8.00;1.00;;;;;;5065693;28;20515;-73
2022/01/30 06:06:21;;;;;;;2.20;1.00;;;7.40;1.00;;;;;;5067267;28;20505;-76
2022/01/30 06:08:59;;;;;;;2.03;1.10;;;7.40;1.00;;;;;;5069226;28;20195;-76
2022/01/30 06:11:28;;;;;;;6.03;1.40;;;7.40;1.00;;;;;;5070272;28;20413;-76
2022/01/30 06:13:54;;;;;;;7.03;2.07;;;7.50;1.00;;;;;;5067562;28;20425;-77
2022/01/30 06:16:22;;;;;;;7.10;2.00;;;7.50;1.00;;;;;;5057317;28;20414;-77
2022/01/30 06:18:52;;;;;;;4.50;1.87;;;7.50;1.00;;;;;;5067113;28;20286;-76
2022/01/30 06:21:18;;;;;;;6.10;1.87;;;7.40;1.00;;;;;;5058121;28;20910;-73
2022/01/30 06:23:46;;;;;;;8.93;1.23;;;7.40;1.00;;;;;;5066671;28;20402;-73
2022/01/30 06:26:12;;;;;;;5.00;1.60;;;7.40;1.00;;;;;;5059521;28;20263;-73
2022/01/30 06:28:37;;;;;;;11.10;1.23;;;7.40;1.00;;;;;;5066084;28;20952;-74
2022/01/30 06:31:03;;;;;;;8.50;1.83;;;7.40;1.00;;;;;;5065190;28;20180;-73
2022/01/30 06:33:29;;;;;;;1.97;1.20;;;7.30;1.00;;;;;;5075274;28;20214;-73
2022/01/30 06:35:55;;;;;;;14.73;1.90;;;;;;;;;;5059767;28;20191;-73
2022/01/30 06:38:20;;;;;;;7.17;1.40;;;7.20;1.00;;;;;;5064648;28;20661;-73
2022/01/30 06:40:46;;;;;;;5.70;1.67;;;7.20;1.00;;;;;;5074896;28;20414;-73
2022/01/30 06:43:11;;;;;;;8.03;1.60;;;7.20;1.00;;;;;;5065825;28;20254;-73
2022/01/30 06:45:37;;;;;;;7.43;1.93;;;7.10;1.00;;;;;;5068393;28;20175;-73
2022/01/30 06:48:03;;;;;;;11.40;1.60;;;7.00;1.00;;;;;;5063474;28;20232;-73
2022/01/30 06:50:29;;;;;;;2.93;1.03;;;6.90;1.00;;;;;;5061430;28;21084;-73
2022/01/30 06:52:58;;;;;;;2.73;1.00;;;6.80;1.00;;;;;;5066110;28;20524;-75
2022/01/30 06:55:46;;;;;;;5.73;1.10;;;6.80;1.00;;;;;;5070979;28;20179;-75
2022/01/30 06:58:14;;;;;;;12.83;1.60;;;6.80;1.00;;;;;;5055569;28;20450;-72
2022/01/30 07:00:41;;;;;;;4.23;1.17;;;6.80;1.00;;;;;;5074132;28;20413;-72
2022/01/30 07:03:16;;;;;;;3.23;1.10;;;6.80;1.00;;;;;;5074956;28;20419;-76
2022/01/30 07:05:46;;;;;;;4.53;1.37;;;6.70;1.00;;;;;;5045406;28;20759;-75
2022/01/30 07:08:12;;;;;;;11.83;1.37;;;6.80;1.00;;;;;;5055015;28;20871;-82
2022/01/30 07:11:28;;;;;;;7.40;1.33;;;6.70;1.00;;;;;;5061736;28;20492;-82
2022/01/30 07:14:04;;;;;;;9.00;1.00;;;6.50;1.00;;;;;;5042094;28;20191;-76
2022/01/30 07:16:30;;;;;;;2.73;1.53;;;6.30;1.00;;;;;;5054972;28;20428;-73
2022/01/30 07:18:58;;;;;;;3.70;1.07;;;6.20;1.00;;;;;;5054188;28;20449;-76
2022/01/30 07:21:52;;;;;;;5.47;1.57;;;6.20;1.00;;;;;;5070549;28;20436;-77
2022/01/30 07:24:18;;;;;;;12.20;1.50;;;6.20;1.00;;;;;;5060994;28;20866;-73
2022/01/30 07:26:44;;;;;;;21.83;2.23;;;6.20;1.00;;;;;;5069427;28;20426;-73
2022/01/30 07:29:11;;;;;;;5.33;0.83;;;6.20;1.00;;;;;;5054275;28;20405;-73
2022/01/30 07:31:37;;;;;;;5.13;1.47;;;6.10;1.00;;;;;;5067607;28;20406;-73
2022/01/30 07:34:03;;;;;;;5.80;2.17;;;6.10;1.00;;;;;;5066832;28;20853;-74
2022/01/30 07:36:31;;;;;;;5.03;1.20;;;6.00;1.00;;;;;;5067179;28;20414;-73
2022/01/30 07:38:58;;;;;;;2.40;0.90;;;6.00;1.00;;;;;;5054237;28;20786;-76
2022/01/30 07:41:24;;;;;;;5.30;1.47;;;6.00;1.00;;;;;;5061292;28;20412;-75
2022/01/30 07:43:52;;;;;;;10.50;1.67;;;6.00;1.00;;;;;;5074354;28;20389;-76
2022/01/30 07:46:19;;;;;;;24.07;2.20;;;;;;;;;;5042353;28;20168;-76
2022/01/30 07:48:46;;;;;;;11.07;1.40;;;6.10;1.00;;;;;;5067513;28;20428;-75
2022/01/30 07:51:22;;;;;;;5.63;1.20;;;6.10;1.00;;;;;;5061154;28;20413;-75
2022/01/30 07:53:48;;;;;;;4.97;1.47;;;6.20;1.00;;;;;;5061662;28;20413;-75
2022/01/30 07:56:23;;;;;;;6.90;1.40;;;6.20;1.00;;;;;;5065407;28;20414;-76
2022/01/30 07:58:52;;;;;;;1.00;0.90;;;6.20;1.00;;;;;;5054741;28;20444;-75
2022/01/30 08:01:22;;;;;;;5.07;0.90;;;6.30;1.00;;;;;;5053647;28;20898;-75
2022/01/30 08:03:48;;;;;;;1.40;1.10;;;6.30;1.00;;;;;;5053819;28;20398;-74
2022/01/30 08:06:22;;;;;;;3.40;1.43;;;6.30;1.00;;;;;;5065554;28;20416;-76
2022/01/30 08:08:52;;;;;;;3.70;0.93;;;6.40;1.00;;;;;;5068265;28;20179;-73
2022/01/30 08:11:22;;;;;;;2.40;1.17;;;6.40;1.00;;;;;;5056750;28;20425;-72
2022/01/30 08:13:52;;;;;;;7.67;1.77;;;6.40;1.00;;;;;;5066451;28;20410;-73
2022/01/30 08:16:20;;;;;;;7.43;1.60;;;6.50;1.00;;;;;;5054332;28;20421;-72
2022/01/30 08:18:46;;;;;;;10.00;1.60;;;6.50;1.00;;;;;;5065311;28;20456;-73
2022/01/30 08:21:16;;;;;;;5.50;1.67;;;6.50;1.00;;;;;;5053454;28;20417;-77
2022/01/30 08:23:42;;;;;;;9.97;1.90;;;6.60;1.00;;;;;;5058283;28;20394;-72
2022/01/30 08:26:10;;;;;;;7.07;1.50;;;6.70;1.00;;;;;;5059542;28;20467;-75
2022/01/30 08:28:40;;;;;;;6.63;1.77;;;6.80;1.00;;;;;;5068469;28;20206;-75
2022/01/30 08:31:10;;;;;;;7.67;1.30;;;6.90;1.00;;;;;;5060540;28;20879;-76
2022/01/30 08:33:46;;;;;;;5.50;1.13;;;6.80;1.00;;;;;;5067654;28;20799;-76
2022/01/30 08:36:22;;;;;;;6.27;2.03;;;6.90;1.00;;;;;;5071323;28;20425;-76
2022/01/30 08:39:04;;;;;;;2.00;1.30;;;7.00;1.00;;;;;;5070549;28;21021;-75
2022/01/30 08:41:34;;;;;;;2.73;1.17;;;7.00;1.00;;;;;;5061910;28;20417;-74
2022/01/30 08:44:00;;;;;;;5.60;1.60;;;7.00;1.00;;;;;;5072981;28;20953;-74
2022/01/30 08:46:34;;;;;;;3.20;1.83;;;7.00;1.00;;;;;;5068510;28;20405;-75
2022/01/30 08:49:00;;;;;;;3.30;1.70;;;7.00;1.00;;;;;;5060305;28;20176;-76
2022/01/30 08:51:34;;;;;;;6.10;1.43;;;7.20;1.00;;;;;;5067181;28;20489;-76
2022/01/30 08:54:04;;;;;;;4.23;1.27;;;7.20;1.00;;;;;;5071050;28;20198;-75
2022/01/30 08:56:30;;;;;;;5.17;1.33;;;7.20;1.00;;;;;;5068615;28;20914;-75
2022/01/30 08:58:58;;;;;;;7.57;1.20;;;7.30;1.00;;;;;;5063687;28;20539;-75
2022/01/30 09:01:32;;;;;;;2.77;0.90;;;7.20;1.00;;;;;;5064983;28;20622;-75
2022/01/30 09:03:59;;;;;;;8.60;1.53;;;7.20;1.00;;;;;;5050171;28;20963;-75
2022/01/30 09:06:25;;;;;;;3.63;1.33;;;7.10;1.00;;;;;;5063913;28;20877;-75
2022/01/30 09:08:52;;;;;;;4.87;1.53;;;7.20;1.00;;;;;;5057162;28;20799;-75
2022/01/30 09:11:18;;;;;;;8.60;1.67;;;7.20;1.00;;;;;;5056738;28;20410;-75
2022/01/30 09:13:58;;;;;;;5.40;2.00;;;7.10;1.00;;;;;;5056874;28;20915;-75
2022/01/30 09:16:28;;;;;;;4.83;1.90;;;7.20;1.00;;;;;;5072079;28;20686;-75
2022/01/30 09:18:56;;;;;;;9.03;1.10;;;7.20;1.00;;;;;;5067532;28;20442;-75
2022/01/30 09:21:22;;;;;;;6.33;1.97;;;7.30;1.00;;;;;;5066241;28;20771;-75
2022/01/30 09:23:47;;;;;;;5.50;1.60;;;7.30;1.00;;;;;;5066512;28;20503;-73
2022/01/30 09:26:16;;;;;;;1.20;0.83;;;7.50;1.00;;;;;;5062997;28;20464;-74
2022/01/30 09:28:47;;;;;;;3.90;1.10;;;7.60;1.00;;;;;;5059177;28;20572;-74
2022/01/30 09:31:12;;;;;;;6.87;1.43;;;7.60;1.00;;;;;;5055802;28;20497;-73
2022/01/30 09:33:39;;;;;;;3.87;0.97;;;7.50;1.00;;;;;;5064553;28;20509;-75
2022/01/30 09:36:06;;;;;;;4.00;1.53;;;7.50;1.00;;;;;;5058695;28;20210;-74
2022/01/30 09:38:32;;;;;;;8.10;1.03;;;7.50;1.00;;;;;;5076650;28;20448;-75
2022/01/30 09:40:59;;;;;;;6.23;1.60;;;7.60;1.00;;;;;;5062774;28;20398;-75
2022/01/30 09:43:29;;;;;;;7.40;1.90;;;7.50;1.00;;;;;;5076020;28;20147;-75
2022/01/30 09:45:56;;;;;;;3.40;1.17;;;7.60;1.00;;;;;;5058442;28;20445;-75
2022/01/30 09:48:24;;;;;;;2.27;1.10;;;7.60;1.00;;;;;;5056187;28;20398;-75
2022/01/30 09:50:51;;;;;;;10.10;1.50;;;7.80;1.00;;;;;;5055773;28;20418;-75
2022/01/30 09:53:17;;;;;;;2.73;1.23;;;7.80;1.00;;;;;;5056329;28;20394;-74
2022/01/30 09:55:43;;;;;;;5.93;1.10;;;7.90;1.00;;;;;;5055817;28;20894;-75
2022/01/30 09:58:09;;;;;;;5.33;1.50;;;7.90;1.00;;;;;;5067718;28;20445;-74
2022/01/30 10:00:40;;;;;;;8.60;1.70;;;7.90;1.00;;;;;;5062095;28;21044;-74
2022/01/30 10:03:06;;;;;;;9.43;1.57;;;7.90;1.00;;;;;;5072079;28;20224;-73
2022/01/30 10:05:35;;;;;;;4.63;1.60;;;7.90;1.00;;;;;;5061751;28;20413;-74
2022/01/30 10:08:03;;;;;;;12.87;2.10;;;8.00;1.00;;;;;;5062380;28;20203;-74
2022/01/30 10:10:30;;;;;;;6.60;2.17;;;8.10;1.00;;;;;;5050155;28;20491;-76
2022/01/30 10:13:12;;;;;;;3.10;1.30;;;8.20;1.00;;;;;;5074339;28;20393;-75
2022/01/30 10:15:58;;;;;;;7.40;1.90;;;8.20;1.00;;;;;;5055932;28;20398;-75
2022/01/30 10:18:32;;;;;;;4.50;1.80;;;8.20;1.00;;;;;;5056986;28;20920;-75
2022/01/30 10:20:59;;;;;;;3.50;1.80;;;8.20;1.00;;;;;;5063003;28;20469;-76
2022/01/30 10:23:41;;;;;;;2.90;1.37;;;8.20;1.00;;;;;;5055890;28;20433;-74
2022/01/30 10:26:12;;;;;;;7.73;1.97;;;8.20;1.00;;;;;;5056899;28;20397;-76
2022/01/30 10:28:40;;;;;;;5.23;1.70;;;8.40;1.00;;;;;;5075234;28;20401;-75
2022/01/30 10:31:07;;;;;;;13.30;1.20;;;8.70;1.00;;;;;;5062082;28;20414;-75
2022/01/30 10:33:48;;;;;;;3.93;1.50;;;8.70;1.00;;;;;;5066432;28;20469;-74
2022/01/30 10:36:30;;;;;;;1.07;0.87;;;8.70;1.00;;;;;;5064230;28;20778;-75
2022/01/30 10:39:04;;;;;;;3.27;1.03;;;8.50;1.00;;;;;;5068824;28;20930;-74
2022/01/30 10:41:56;;;;;;;6.20;1.60;;;8.40;1.00;;;;;;5042844;28;20747;-76
2022/01/30 10:44:22;;;;;;;7.20;1.40;;;8.50;1.00;;;;;;5067784;28;20438;-76
2022/01/30 10:46:51;;;;;;;20.57;1.60;;;8.50;1.00;;;;;;5054902;28;20395;-76
2022/01/30 10:49:22;;;;;;;5.40;1.50;;;8.60;1.00;;;;;;5068188;28;20402;-76
2022/01/30 10:52:01;;;;;;;3.57;1.30;;;8.70;1.00;;;;;;5067147;28;20412;-76
2022/01/30 10:54:31;;;;;;;5.30;1.80;;;8.60;1.00;;;;;;5035115;28;20406;-72
2022/01/30 10:57:05;;;;;;;5.10;1.13;;;8.60;1.00;;;;;;5053995;28;20418;-73
2022/01/30 10:59:42;;;;;;;5.50;1.80;;;8.70;1.00;;;;;;5064487;28;20428;-72
2022/01/30 11:02:18;;;;;;;5.43;1.60;;;8.80;1.00;;;;;;5070316;28;20424;-72
2022/01/30 11:05:06;;;;;;;7.70;1.60;;;8.80;1.00;;;;;;5067193;28;20508;-76
2022/01/30 11:07:35;;;;;;;9.70;2.00;;;8.80;1.00;;;;;;5067682;28;20414;-75
2022/01/30 11:10:21;;;;;;;6.37;1.60;;;8.80;1.00;;;;;;5057382;28;20417;-73
2022/01/30 11:13:08;;;;;;;3.50;1.73;;;8.80;1.00;;;;;;5062285;28;20410;-77
2022/01/30 11:15:54;;;;;;;8.90;1.70;;;8.80;1.00;;;;;;5051543;28;20409;-77
2022/01/30 11:18:58;;;;;;;6.70;1.53;;;8.70;1.00;;;;;;5068045;28;20586;-77
2022/01/30 11:21:28;;;;;;;5.20;1.30;;;8.80;1.00;;;;;;5060765;28;20409;-77
2022/01/30 11:24:02;;;;;;;11.07;1.93;;;8.70;1.00;;;;;;5046413;28;20450;-75
2022/01/30 11:26:28;;;;;;;5.93;1.83;;;8.60;1.00;;;;;;5067644;28;20414;-75
2022/01/30 11:28:55;;;;;;;8.70;1.93;;;8.60;1.00;;;;;;5054522;28;20425;-75
2022/01/30 11:31:23;;;;;;;29.17;2.23;;;10.00;1.00;;;;;;5054144;28;20456;-76
2022/01/30 11:33:54;;;;;;;6.37;1.60;;;8.50;1.00;;;;;;5065652;28;20504;-76
2022/01/30 11:36:23;;;;;;;7.77;1.63;;;8.40;1.00;;;;;;5069307;28;20402;-76
2022/01/30 11:38:49;;;;;;;18.73;1.90;;;8.50;1.00;;;;;;5054148;28;20523;-75
2022/01/30 11:41:22;;;;;;;3.37;1.47;;;8.50;1.00;;;;;;5067892;28;20878;-75
2022/01/30 11:44:28;;;;;;;8.40;2.43;;;8.40;1.00;;;;;;5067219;28;20405;-75
2022/01/30 11:47:01;;;;;;;15.13;1.87;;;8.50;1.00;;;;;;5057953;28;20444;-75
2022/01/30 11:50:03;;;;;;;12.40;1.40;;;8.50;1.00;;;;;;5060491;28;20412;-75
2022/01/30 11:52:48;;;;;;;18.50;1.80;;;8.50;1.00;;;;;;5055684;28;21104;-76
2022/01/30 11:55:50;;;;;;;19.63;1.90;;;8.50;1.00;;;;;;5054877;28;20783;-75
2022/01/30 11:58:35;;;;;;;7.47;1.50;;;8.50;1.00;;;;;;5033379;28;20450;-75
2022/01/30 12:01:25;;;;;;;4.97;1.40;;;8.50;1.00;;;;;;5051865;28;20538;-75
2022/01/30 12:04:17;;;;;;;10.60;1.57;;;8.50;1.00;;;;;;5075620;28;20891;-76
2022/01/30 12:06:47;;;;;;;2.00;0.93;;;8.40;1.00;;;;;;5068870;28;20436;-75
2022/01/30 12:09:19;;;;;;;6.17;1.50;;;8.40;1.00;;;;;;5063206;28;20443;-75
2022/01/30 12:12:02;;;;;;;7.97;2.17;;;8.40;1.00;;;;;;5060581;28;20424;-75
2022/01/30 12:14:47;;;;;;;4.17;1.33;;;8.40;1.00;;;;;;5061041;28;20426;-75
2022/01/30 12:17:46;;;;;;;16.33;1.53;;;8.40;1.00;;;;;;5050851;28;20427;-75
2022/01/30 12:20:54;;;;;;;26.13;2.40;;;8.50;1.00;;;;;;5059042;28;20774;-75
2022/01/30 12:23:30;;;;;;;7.63;2.03;;;8.50;1.00;;;;;;4993158;28;20783;-75
2022/01/30 12:26:05;;;;;;;13.47;2.23;;;8.40;1.00;;;;;;5007350;28;20438;-74
2022/01/30 12:28:53;;;;;;;8.73;1.53;;;8.30;1.00;;;;;;4991313;28;20428;-75
2022/01/30 12:31:34;;;;;;;6.27;2.03;;;8.20;1.00;;;;;;4996670;28;20460;-74
2022/01/30 12:34:04;;;;;;;7.80;1.57;;;8.20;1.00;;;;;;5000737;28;20539;-74
2022/01/30 12:36:41;;;;;;;7.03;1.60;;;8.30;1.00;;;;;;4991941;28;20429;-74
2022/01/30 12:39:16;;;;;;;14.30;1.70;;;8.20;1.00;;;;;;5007127;28;20463;-74
2022/01/30 12:41:43;;;;;;;7.30;1.77;;;8.20;1.00;;;;;;5001261;28;20479;-74
2022/01/30 12:44:15;;;;;;;4.20;1.83;;;8.20;1.00;;;;;;5007849;28;20427;-74
2022/01/30 12:46:48;;;;;;;7.73;1.97;;;8.30;1.00;;;;;;5002602;28;20443;-74
2022/01/30 12:49:18;;;;;;;23.47;2.47;;;8.30;1.00;;;;;;5003085;28;20519;-74
2022/01/30 12:51:50;;;;;;;12.73;2.50;;;7.90;1.00;;;;;;5000261;28;20421;-74
2022/01/30 12:54:19;;;;;;;10.60;2.27;;;8.60;1.00;;;;;;5009499;28;20466;-74
2022/01/30 12:56:46;;;;;;;10.20;2.40;;;8.60;1.00;;;;;;4997319;28;21120;-75
2022/01/30 12:59:25;;;;;;;7.20;2.03;;;8.60;1.00;;;;;;4989859;28;20476;-76
2022/01/30 13:01:52;;;;;;;5.33;1.70;;;8.60;1.00;;;;;;5066808;28;20817;-76
2022/01/30 13:04:35;;;;;;;6.57;2.70;;;8.60;1.00;;;;;;5061221;28;20415;-77
2022/01/30 13:07:04;;;;;;;10.20;2.23;;;8.90;1.00;;;;;;5066414;28;20512;-76
2022/01/30 13:09:31;;;;;;;9.40;2.23;;;8.90;1.00;;;;;;5068598;28;20437;-75
2022/01/30 13:12:01;;;;;;;13.20;2.30;;;9.00;1.00;;;;;;5063545;28;20469;-74
2022/01/30 13:14:42;;;;;;;10.57;1.90;;;9.00;1.00;;;;;;5076623;28;20417;-74
2022/01/30 13:17:10;;;;;;;5.10;2.17;;;9.00;1.00;;;;;;5064310;28;20519;-73
2022/01/30 13:19:42;;;;;;;5.03;1.80;;;9.00;1.00;;;;;;5062348;28;20453;-74
2022/01/30 13:22:10;;;;;;;10.67;2.23;;;9.00;1.00;;;;;;5059774;28;20422;-74
2022/01/30 13:24:38;;;;;;;11.80;2.60;;;9.00;1.00;;;;;;5058886;28;20437;-74
2022/01/30 13:27:08;;;;;;;6.10;1.80;;;9.00;1.00;;;;;;5076817;28;20406;-76
2022/01/30 13:29:55;;;;;;;7.37;2.23;;;9.00;1.00;;;;;;5062773;28;20412;-76
2022/01/30 13:32:53;;;;;;;8.30;2.00;;;9.00;1.00;;;;;;5063453;28;20912;-77
2022/01/30 13:35:21;;;;;;;4.43;2.00;;;9.00;1.00;;;;;;5055533;28;20472;-76
2022/01/30 13:37:47;;;;;;;11.00;2.00;;;8.90;1.00;;;;;;5073705;28;20484;-77
2022/01/30 13:40:25;;;;;;;5.87;1.33;;;8.90;1.00;;;;;;5058329;28;20909;-74
2022/01/30 13:42:59;;;;;;;11.60;2.00;;;9.10;1.00;;;;;;5060004;28;20426;-74
2022/01/30 13:48:20;;;;;;;3.80;1.90;;;9.10;1.00;;;;;;5054041;28;20802;-74
2022/01/30 13:51:03;;;;;;;13.33;2.93;;;9.00;1.00;;;;;;5056684;28;20429;-74
2022/01/30 13:53:31;;;;;;;5.63;1.90;;;9.00;1.00;;;;;;5069207;28;20421;-74
2022/01/30 13:56:05;;;;;;;5.30;1.83;;;8.90;1.00;;;;;;5056134;28;20472;-76
2022/01/30 13:59:04;;;;;;;8.80;1.90;;;8.90;1.00;;;;;;5050997;28;20452;-77
2022/01/30 14:02:02;;;;;;;9.73;2.60;;;9.00;1.00;;;;;;5061784;28;20781;-77
2022/01/30 14:04:46;;;;;;;10.03;2.10;;;9.10;1.00;;;;;;5072294;28;20920;-78
2022/01/30 14:07:30;;;;;;;13.33;2.33;;;9.10;1.00;;;;;;5068279;28;20401;-77
2022/01/30 14:10:06;;;;;;;10.47;2.47;;;9.10;1.00;;;;;;5052182;28;20471;-76
2022/01/30 14:12:54;;;;;;;5.07;2.20;;;9.20;1.00;;;;;;5073266;28;20393;-77
2022/01/30 14:15:29;;;;;;;6.20;2.30;;;9.20;1.00;;;;;;5055569;28;20412;-77
2022/01/30 14:18:17;;;;;;;10.40;1.80;;;9.30;1.00;;;;;;5043032;28;20458;-77
2022/01/30 14:20:53;;;;;;;7.30;2.03;;;9.30;1.00;;;;;;5067827;28;20450;-77
2022/01/30 14:23:46;;;;;;;5.40;1.83;;;9.20;1.00;;;;;;5055618;28;20413;-77
2022/01/30 14:26:58;;;;;;;10.10;2.40;;;8.90;1.00;;;;;;5035704;28;20423;-76
2022/01/30 14:29:31;;;;;;;7.37;2.83;;;8.90;1.00;;;;;;5052310;28;20409;-75